Billings, NY (12510)

8:07 PM EDT on March 26, 2015 (GMT -0400)
Arlington High School - Lagrangeville, NY | | Change Station
CLOSE
Current Station
Personal Weather Station
Location: Lagrangeville, NY
Elevation: 318 ft
Nearby Weather Stations

Elev 318 ft 41.67 °N, 73.80 °W | Updated 5 minutes ago

Fog
Fog
41.6 °F
Feels Like 42 °F
N
2.0
Wind Variable Wind from NNE
Gusts 17.0 mph

Today
High -- | Low -- °F
--% Chance of Precip.
Yesterday
High -- | Low -- °F
Precip. -- in
6:48 AM 7:13 PM
Waxing Crescent, 47% visible
Pressure 29.68 in
Visibility 4.0 miles
Clouds Mostly Cloudy 700 ft
Overcast 1700 ft
Windchill 42 °F
Dew Point 40 °F
Humidity 94%
Rainfall 0.02 in
Snow Depth Not available.
UV 0.0 out of 12
Pollen 3.40 out of 12
Air Quality Not available.
Flu Activity Not available.
SPECI KPOU 270000Z 01010KT 4SM -RA BR BKN007 OVC017 06/04 A2968 RMK AO2 RAB2359 CIG 004V010 P0001 T00610044

More Conditions Fewer Conditions

Pressure 29.68 in
Visibility 4.0 miles
Clouds Mostly Cloudy 700 ft
Overcast 1700 ft
Windchill 42 °F
Dew Point 40 °F
Humidity 94%
Rainfall 0.02 in
Snow Depth Not available.
UV 0.0 out of 12
Pollen 3.40 out of 12
Air Quality Not available.
Flu Activity Not available.
SPECI KPOU 270000Z 01010KT 4SM -RA BR BKN007 OVC017 06/04 A2968 RMK AO2 RAB2359 CIG 004V010 P0001 T00610044

More Conditions Fewer Conditions

10-Day Weather Forecast

Almanac

Astronomy

Mar. 26, 2015 Rise Set
Actual Time
Civil Twilight
Nautical Twilight
Astronomical Twilight
Moon
Length of Visible Light
Length of Day
Tomorrow will be .
, % of the Moon is Illuminated

Today's Extremes

State Highs State Lows

Community

WunderPhotos

Upload Photos

1,808,651 photos uploaded!

WunderBlogs® & News

Nearby

Air Quality

  Air Quality AQ Index Pollutant
Not available.

Snow Depth

Station Depth Elevation

Earthquake Activity

City Distance Mag. Time & Date
Minimum magnitude displayed is 2.5.

Coastal Water Temperatures

Place Temperature

Stations

Nearby Weather Stations

Station Location Temp. Windchill Dew Point Humidity Wind Precip. Elev Updated Type